Florence, SC

8:03 AM EST on March 03, 2015 (GMT -0500)
Forest Hills | Change Station
CLOSE
Current Station
Personal Weather Station
Location: Florence, SC
Elevation: 115 ft
Nearby Weather Stations
Active Advisory: Flood Warning Active Notice: Public Information Statement

Elev 115 ft 34.18 °N, 79.78 °W | Updated 10 minutes ago

Overcast
Overcast
43.3 °F
Feels Like 41 °F
N
4.2
Wind Variable Wind from NE

Today
High -- | Low -- °F
--% Chance of Precip.
Yesterday
High -- | Low -- °F
Precip. -- in
6:45 AM 6:16 PM
Waxing Gibbous, 96% visible
Pressure 30.30 in
Visibility 10.0 miles
Clouds Overcast 2500 ft
Windchill 41 °F
Dew Point 33 °F
Humidity 66%
Rainfall 0.00 in
Snow Depth Not available.
UV 0 out of 12
Pollen 3.20 out of 12
Air Quality Not available.
Flu Activity Not available.
METAR KFLO 031253Z 09010KT 10SM OVC025 07/M02 A3030 RMK AO2 SLP260 T00671022

More Conditions Fewer Conditions

Pressure 30.30 in
Visibility 10.0 miles
Clouds Overcast 2500 ft
Windchill 41 °F
Dew Point 33 °F
Humidity 66%
Rainfall 0.00 in
Snow Depth Not available.
UV 0 out of 12
Pollen 3.20 out of 12
Air Quality Not available.
Flu Activity Not available.
METAR KFLO 031253Z 09010KT 10SM OVC025 07/M02 A3030 RMK AO2 SLP260 T00671022

More Conditions Fewer Conditions

10-Day Weather Forecast

Almanac

Astronomy

Mar. 03, 2015 Rise Set
Actual Time
Civil Twilight
Nautical Twilight
Astronomical Twilight
Moon
Length of Visible Light
Length of Day
Tomorrow will be .
, % of the Moon is Illuminated

Today's Extremes

State Highs State Lows

Community

WunderPhotos

Upload Photos

1,802,098 photos uploaded!

WunderBlogs® & News

Nearby

Air Quality

  Air Quality AQ Index Pollutant
Not available.

Snow Depth

Station Depth Elevation

Earthquake Activity

City Distance Mag. Time & Date
Minimum magnitude displayed is 2.5.

Coastal Water Temperatures

Place Temperature

Nearby Weather Stations

Flood Warning
Statement as of 7:49 PM EST on March 02, 2015

... Flood Warning now in effect until Wednesday evening...
the Flood Warning continues for
the great Pee Dee at Pee Dee.
* Until Wednesday evening.
* At 7:00 PM Monday the stage was 19.1 feet.
* Flood stage is 19.0 feet.
* Minor flooding is occurring and minor flooding is forecast.
* Forecast... the river will continue rising to near 19.1 feet by after midnight
tonight. The river will fall below flood stage Wednesday morning.
* Impact... at 19.0 feet... flood waters will affect swamplands adjacent to the
river.


Lat... Lon 3424 7962 3424 7950 3400 7945 3385 7932
          3385 7944 3398 7957

43